createdAt,value
2022-08-29T00:03:25.972Z,6.15
2022-08-29T00:08:20.179Z,6.82
2022-08-29T00:13:15.286Z,6.95
2022-08-29T00:18:09.781Z,5.80
2022-08-29T00:23:04.978Z,5.80
2022-08-29T00:27:59.190Z,5.53
2022-08-29T00:32:53.845Z,4.55
2022-08-29T00:37:47.831Z,5.13
2022-08-29T00:42:42.645Z,5.97
2022-08-29T00:47:42.132Z,5.90
2022-08-29T00:52:45.429Z,6.43
2022-08-29T00:57:41.363Z,7.00
2022-08-29T01:02:40.316Z,7.10
2022-08-29T01:07:35.412Z,7.90
2022-08-29T01:12:31.759Z,7.50
2022-08-29T01:17:48.180Z,6.15
2022-08-29T01:22:48.281Z,5.80
2022-08-29T01:27:46.456Z,6.80
2022-08-29T01:32:40.541Z,6.43
2022-08-29T01:37:35.579Z,5.43
2022-08-29T01:42:29.683Z,6.53
2022-08-29T01:47:32.980Z,6.45
2022-08-29T01:52:26.293Z,5.35
2022-08-29T01:57:20.370Z,4.35
2022-08-29T02:02:31.038Z,4.28
2022-08-29T02:07:32.403Z,3.85
2022-08-29T02:12:26.409Z,4.95
2022-08-29T02:17:20.283Z,5.15
2022-08-29T02:22:13.779Z,5.97
2022-08-29T02:27:06.659Z,4.93
2022-08-29T02:32:05.208Z,6.80
2022-08-29T02:37:00.358Z,9.30
2022-08-29T02:46:46.995Z,8.20
2022-08-29T02:51:41.076Z,7.82
2022-08-29T02:56:34.515Z,7.93
2022-08-29T03:01:28.610Z,8.45
2022-08-29T03:06:22.583Z,8.15
2022-08-29T03:11:17.011Z,8.10
2022-08-29T03:16:11.910Z,9.93
2022-08-29T03:21:06.259Z,9.43
2022-08-29T03:25:59.620Z,9.02
2022-08-29T03:30:53.669Z,9.50
2022-08-29T03:35:48.376Z,9.73
2022-08-29T03:40:43.714Z,8.88
2022-08-29T03:45:38.230Z,9.02
2022-08-29T03:50:34.965Z,8.27
2022-08-29T03:55:29.398Z,8.38
2022-08-29T04:00:23.396Z,8.38
2022-08-29T04:05:19.607Z,8.50
2022-08-29T04:10:16.056Z,9.23
2022-08-29T04:15:10.707Z,8.13
2022-08-29T04:20:06.710Z,8.73
2022-08-29T04:25:01.334Z,9.10
2022-08-29T04:29:55.541Z,7.35
2022-08-29T04:34:50.197Z,7.88
2022-08-29T04:39:44.405Z,7.93
2022-08-29T04:44:38.732Z,4.90
2022-08-29T04:49:32.719Z,5.10
2022-08-29T04:54:26.298Z,5.53
2022-08-29T04:59:20.444Z,4.70
2022-08-29T05:04:14.737Z,3.92
2022-08-29T05:09:08.094Z,3.90
2022-08-29T05:14:02.359Z,3.50
2022-08-29T05:18:57.047Z,2.92
2022-08-29T05:23:50.775Z,3.60
2022-08-29T05:28:44.924Z,3.60
2022-08-29T05:33:38.357Z,3.45
2022-08-29T05:38:32.536Z,3.70
2022-08-29T05:43:27.383Z,4.43
2022-08-29T05:48:21.143Z,4.10
2022-08-29T05:53:16.823Z,3.75
2022-08-29T05:58:12.211Z,5.25
2022-08-29T06:03:06.147Z,7.15
2022-08-29T06:08:00.091Z,7.90
2022-08-29T06:12:53.900Z,8.63
2022-08-29T06:17:47.576Z,9.02
2022-08-29T06:22:41.843Z,8.77
2022-08-29T06:27:35.348Z,6.50
2022-08-29T06:32:29.139Z,7.75
2022-08-29T06:37:24.180Z,7.55
2022-08-29T06:42:19.827Z,6.70
2022-08-29T06:47:16.792Z,6.18
2022-08-29T06:52:10.571Z,5.18
2022-08-29T06:57:05.618Z,6.43
2022-08-29T07:01:59.865Z,5.07
2022-08-29T07:06:53.527Z,4.93
2022-08-29T07:11:47.622Z,5.38
2022-08-29T07:16:41.363Z,4.90
2022-08-29T07:21:35.416Z,5.25
2022-08-29T07:26:37.112Z,4.70
2022-08-29T07:31:31.602Z,5.33
2022-08-29T07:36:25.817Z,5.22
2022-08-29T07:41:19.731Z,4.70
2022-08-29T07:46:15.895Z,4.45
2022-08-29T07:51:10.607Z,4.47
2022-08-29T07:56:13.753Z,4.47
2022-08-29T08:01:07.529Z,4.45
2022-08-29T08:06:07.061Z,5.00
2022-08-29T08:11:02.392Z,5.03
2022-08-29T08:15:56.436Z,5.82
2022-08-29T08:20:50.361Z,4.40
2022-08-29T08:25:44.567Z,4.97
2022-08-29T08:30:38.889Z,4.93
2022-08-29T08:35:34.999Z,4.32
2022-08-29T08:40:29.154Z,3.72
2022-08-29T08:45:36.761Z,5.07
2022-08-29T08:50:54.879Z,3.88
2022-08-29T08:55:55.507Z,5.50
2022-08-29T09:00:54.819Z,4.32
2022-08-29T09:06:06.904Z,4.57
2022-08-29T09:11:41.752Z,3.15
2022-08-29T09:16:43.679Z,6.15
2022-08-29T09:21:54.740Z,5.68
2022-08-29T09:26:48.821Z,4.80
2022-08-29T09:31:42.364Z,4.50
2022-08-29T09:36:53.848Z,4.88
2022-08-29T09:41:50.941Z,4.10
2022-08-29T09:46:45.523Z,4.78
2022-08-29T09:51:41.811Z,5.82
2022-08-29T09:56:37.658Z,4.80
2022-08-29T10:01:36.584Z,4.75
2022-08-29T10:06:46.232Z,5.85
2022-08-29T10:11:57.549Z,5.07
2022-08-29T10:17:24.851Z,6.50
2022-08-29T10:22:47.379Z,6.30
2022-08-29T10:27:47.892Z,5.82
2022-08-29T10:33:05.529Z,6.20
2022-08-29T10:38:20.380Z,5.93
2022-08-29T10:43:38.625Z,6.03
2022-08-29T10:48:39.237Z,7.28
2022-08-29T10:53:37.465Z,6.63
2022-08-29T10:58:32.723Z,5.70
2022-08-29T11:03:41.317Z,6.38
2022-08-29T11:08:38.871Z,6.07
2022-08-29T11:14:05.599Z,5.45
2022-08-29T11:19:28.788Z,6.22
2022-08-29T11:24:24.180Z,7.00
2022-08-29T11:29:46.292Z,5.50
2022-08-29T11:34:57.255Z,5.60
2022-08-29T11:40:10.967Z,4.00
2022-08-29T11:45:06.487Z,5.22
2022-08-29T11:50:17.886Z,4.20
2022-08-29T11:55:42.504Z,4.00
2022-08-29T12:01:03.710Z,4.20
2022-08-29T12:06:21.146Z,4.10
2022-08-29T12:11:17.112Z,4.18
2022-08-29T12:16:12.589Z,3.67
2022-08-29T12:21:32.372Z,4.22
2022-08-29T12:26:44.174Z,4.35
2022-08-29T12:32:08.627Z,3.88
2022-08-29T12:37:07.560Z,3.40
2022-08-29T12:42:24.564Z,3.65
2022-08-29T12:47:28.660Z,3.00
2022-08-29T12:52:27.803Z,3.03
2022-08-29T12:57:23.512Z,3.10
2022-08-29T13:02:32.077Z,2.50
2022-08-29T13:07:27.003Z,2.95
2022-08-29T13:12:30.039Z,3.15
2022-08-29T13:17:34.622Z,2.80
2022-08-29T13:22:31.755Z,2.90
2022-08-29T13:27:31.060Z,2.80
2022-08-29T13:32:27.576Z,3.03
2022-08-29T13:37:48.789Z,2.80
2022-08-29T13:42:46.295Z,2.72
2022-08-29T13:48:19.861Z,2.92
2022-08-29T13:53:14.598Z,2.65
2022-08-29T13:58:08.704Z,2.92
2022-08-29T14:03:03.577Z,2.83
2022-08-29T14:07:58.773Z,3.00
2022-08-29T14:12:51.962Z,2.85
2022-08-29T14:17:46.684Z,3.22
2022-08-29T14:22:41.155Z,2.67
2022-08-29T14:27:34.966Z,3.17
2022-08-29T14:32:28.816Z,3.30
2022-08-29T14:37:22.756Z,2.42
2022-08-29T14:42:16.768Z,2.97
2022-08-29T14:47:10.923Z,2.92
2022-08-29T14:52:06.778Z,2.67
2022-08-29T14:57:00.228Z,3.03
2022-08-29T15:01:55.211Z,3.38
2022-08-29T15:06:49.508Z,3.58
2022-08-29T15:11:43.739Z,3.42
2022-08-29T15:16:36.982Z,3.20
2022-08-29T15:21:31.483Z,2.83
2022-08-29T15:26:24.381Z,3.25
2022-08-29T15:31:18.426Z,2.70
2022-08-29T15:36:12.917Z,2.63
2022-08-29T15:41:07.903Z,3.28
2022-08-29T15:46:02.678Z,2.90
2022-08-29T15:50:56.630Z,3.20
2022-08-29T15:55:50.616Z,2.53
2022-08-29T16:00:43.778Z,3.05
2022-08-29T16:05:39.509Z,3.15
2022-08-29T16:10:33.596Z,3.40
2022-08-29T16:15:31.094Z,2.72
2022-08-29T16:20:26.036Z,2.78
2022-08-29T16:25:19.012Z,3.05
2022-08-29T16:30:13.283Z,3.05
2022-08-29T16:35:07.700Z,2.70
2022-08-29T16:40:02.414Z,2.97
2022-08-29T16:44:56.477Z,3.03
2022-08-29T16:49:49.853Z,2.88
2022-08-29T16:54:49.178Z,2.92
2022-08-29T16:59:47.133Z,3.63
2022-08-29T17:04:40.140Z,2.65
2022-08-29T17:09:35.061Z,3.20
2022-08-29T17:14:28.808Z,3.20
2022-08-29T17:19:23.116Z,3.13
2022-08-29T17:24:17.115Z,3.22
2022-08-29T17:29:12.409Z,3.05
2022-08-29T17:34:07.123Z,2.75
2022-08-29T17:39:01.337Z,2.88
2022-08-29T17:43:55.132Z,2.88
2022-08-29T17:48:49.002Z,2.80
2022-08-29T17:53:42.195Z,3.35
2022-08-29T17:58:36.825Z,3.17
2022-08-29T18:03:30.965Z,3.33
2022-08-29T18:08:25.078Z,2.60
2022-08-29T18:13:21.928Z,3.17
2022-08-29T18:18:15.955Z,2.85
2022-08-29T18:23:11.299Z,2.63
2022-08-29T18:28:07.646Z,3.13
2022-08-29T18:33:00.936Z,3.45
2022-08-29T18:37:54.809Z,3.10
2022-08-29T18:42:49.318Z,3.28
2022-08-29T18:47:43.155Z,3.00
2022-08-29T18:52:37.307Z,3.60
2022-08-29T18:57:30.756Z,2.70
2022-08-29T19:02:25.208Z,3.10
2022-08-29T19:07:24.140Z,3.70
2022-08-29T19:12:19.641Z,2.92
2022-08-29T19:17:13.210Z,4.10
2022-08-29T19:22:09.017Z,4.28
2022-08-29T19:27:05.619Z,3.40
2022-08-29T19:31:58.768Z,3.65
2022-08-29T19:36:52.785Z,4.25
2022-08-29T19:41:47.674Z,3.65
2022-08-29T19:46:42.593Z,3.90
2022-08-29T19:51:39.032Z,3.90
2022-08-29T19:56:34.677Z,4.28
2022-08-29T20:01:28.445Z,3.38
2022-08-29T20:06:23.572Z,3.13
2022-08-29T20:11:24.025Z,3.20
2022-08-29T20:16:21.585Z,3.38
2022-08-29T20:21:15.930Z,3.20
2022-08-29T20:26:09.973Z,2.97
2022-08-29T20:31:04.658Z,3.25
2022-08-29T20:36:16.089Z,3.45
2022-08-29T20:41:10.249Z,3.13
2022-08-29T20:46:29.335Z,2.97
2022-08-29T20:51:24.629Z,2.83
2022-08-29T20:56:23.126Z,2.95
2022-08-29T21:01:17.509Z,3.10
2022-08-29T21:06:12.277Z,3.10
2022-08-29T21:11:05.997Z,2.90
2022-08-29T21:16:00.229Z,2.65
2022-08-29T21:20:56.085Z,3.10
2022-08-29T21:25:57.034Z,2.80
2022-08-29T21:30:52.657Z,2.95
2022-08-29T21:35:47.000Z,2.80
2022-08-29T21:40:50.954Z,2.85
2022-08-29T21:45:44.827Z,2.78
2022-08-29T21:50:38.633Z,3.15
2022-08-29T21:55:31.838Z,2.58
2022-08-29T22:00:32.893Z,2.33
2022-08-29T22:05:26.388Z,3.47
2022-08-29T22:10:28.865Z,2.40
2022-08-29T22:15:41.044Z,3.10
2022-08-29T22:20:38.067Z,2.80
2022-08-29T22:25:32.151Z,2.33
2022-08-29T22:30:32.290Z,2.70
2022-08-29T22:35:27.093Z,2.70
2022-08-29T22:40:21.259Z,2.83
2022-08-29T22:45:18.111Z,3.25
2022-08-29T22:50:16.337Z,4.60
2022-08-29T22:55:12.570Z,3.78
2022-08-29T23:00:10.070Z,3.95
2022-08-29T23:05:08.896Z,4.30
2022-08-29T23:10:03.893Z,5.05
2022-08-29T23:14:57.633Z,4.40
2022-08-29T23:19:51.859Z,4.00
2022-08-29T23:24:58.187Z,4.30
2022-08-29T23:29:52.886Z,3.55
2022-08-29T23:34:47.515Z,3.67
2022-08-29T23:39:43.100Z,3.85
2022-08-29T23:44:36.280Z,4.47
2022-08-29T23:49:29.541Z,4.30
2022-08-29T23:54:23.168Z,3.42
2022-08-29T23:59:35.927Z,3.45
